Time;durP1;ratioP1;P1;durP2;ratioP2;P2;SDS_P1;SDS_P2;PMS_P1;PMS_P2;Temp;Humidity;BMP_temperature;BMP_pressure;BME280_temperature;BME280_humidity;BME280_pressure;Samples;Min_cycle;Max_cycle;Signal;HPM_P1;HPM_P2
2023/05/11 00:01:15;;;;;;;4.95;1.70;;;11.40;99.90;;;;;;5053113;28;20139;-44
2023/05/11 00:03:41;;;;;;;4.32;1.70;;;11.40;99.90;;;;;;5053121;28;20081;-45
2023/05/11 00:06:07;;;;;;;4.28;1.60;;;11.40;99.90;;;;;;5053272;28;20045;-45
2023/05/11 00:08:32;;;;;;;4.93;1.93;;;11.40;99.90;;;;;;5053345;28;20511;-45
2023/05/11 00:11:01;;;;;;;4.97;1.90;;;11.30;99.90;;;;;;5053123;28;20447;-45
2023/05/11 00:13:28;;;;;;;4.60;1.58;;;11.40;99.90;;;;;;5052744;28;20833;-45
2023/05/11 00:15:54;;;;;;;4.93;1.88;;;11.40;99.90;;;;;;5052542;28;20119;-44
2023/05/11 00:18:20;;;;;;;4.53;1.90;;;11.40;99.90;;;;;;5053257;28;20045;-44
2023/05/11 00:20:45;;;;;;;5.38;1.65;;;11.40;99.90;;;;;;5056131;28;20507;-44
2023/05/11 00:23:11;;;;;;;4.20;1.37;;;11.40;99.90;;;;;;5056862;28;20042;-44
2023/05/11 00:25:38;;;;;;;4.43;1.70;;;11.50;99.90;;;;;;5056586;28;20373;-44
2023/05/11 00:28:03;;;;;;;;;;;11.50;99.90;;;;;;5056933;28;20068;-45
2023/05/11 00:30:29;;;;;;;4.38;1.58;;;11.50;99.90;;;;;;5056318;28;20384;-45
2023/05/11 00:32:54;;;;;;;6.20;2.63;;;11.50;99.90;;;;;;5056525;28;20044;-44
2023/05/11 00:35:20;;;;;;;5.80;2.20;;;11.50;99.90;;;;;;5056361;28;20053;-45
2023/05/11 00:37:46;;;;;;;5.17;1.90;;;11.50;99.90;;;;;;5056222;28;20049;-44
2023/05/11 00:40:11;;;;;;;4.95;2.03;;;11.50;99.90;;;;;;5055353;28;20044;-44
2023/05/11 00:42:37;;;;;;;4.40;1.70;;;11.60;99.90;;;;;;5056206;28;20049;-45
2023/05/11 00:45:03;;;;;;;4.47;1.80;;;11.50;99.90;;;;;;5056053;28;20037;-44
2023/05/11 00:47:29;;;;;;;5.15;2.00;;;11.50;99.90;;;;;;5056566;28;20055;-44
2023/05/11 00:49:55;;;;;;;4.65;1.60;;;11.50;99.90;;;;;;5055151;28;20052;-44
2023/05/11 00:52:21;;;;;;;5.30;1.70;;;11.50;99.90;;;;;;5056070;28;20041;-44
2023/05/11 00:54:47;;;;;;;4.93;2.10;;;11.50;99.90;;;;;;5055359;28;20041;-45
2023/05/11 00:57:14;;;;;;;4.93;1.92;;;11.50;99.90;;;;;;5055972;28;20088;-44
2023/05/11 00:59:40;;;;;;;4.15;1.45;;;11.50;99.90;;;;;;5055589;28;20056;-45
2023/05/11 01:02:06;;;;;;;3.55;1.38;;;11.50;99.90;;;;;;5055905;28;20044;-44
2023/05/11 01:04:32;;;;;;;3.70;1.20;;;11.50;99.90;;;;;;5055831;28;20052;-44
2023/05/11 01:07:33;;;;;;;3.75;1.52;;;11.50;99.90;;;;;;5056000;28;20041;-45
2023/05/11 01:10:20;;;;;;;4.75;1.63;;;11.50;99.90;;;;;;5055299;28;20057;-44
2023/05/11 01:13:31;;;;;;;4.88;1.90;;;11.40;99.90;;;;;;5055668;28;20473;-44
2023/05/11 01:15:57;;;;;;;4.57;1.50;;;11.40;99.90;;;;;;5047046;28;20095;-44
2023/05/11 01:18:34;;;;;;;3.92;1.42;;;11.40;99.90;;;;;;5055406;28;20053;-44
2023/05/11 01:21:01;;;;;;;5.32;1.80;;;11.40;99.90;;;;;;5055815;28;20052;-44
2023/05/11 01:23:38;;;;;;;5.68;2.15;;;11.40;99.90;;;;;;5055472;28;20055;-44
2023/05/11 01:26:25;;;;;;;5.40;1.80;;;11.50;99.90;;;;;;5055382;28;20049;-44
2023/05/11 01:29:27;;;;;;;4.85;2.08;;;11.50;99.90;;;;;;5055163;28;20048;-44
2023/05/11 01:31:55;;;;;;;4.82;1.77;;;11.50;99.90;;;;;;5053549;28;20056;-44
2023/05/11 01:34:24;;;;;;;5.10;2.22;;;11.40;99.90;;;;;;5055264;28;20041;-44
2023/05/11 01:36:59;;;;;;;4.45;1.52;;;11.40;99.90;;;;;;5054083;28;20103;-44
2023/05/11 01:39:33;;;;;;;5.05;1.77;;;11.40;99.90;;;;;;5055269;28;20092;-44
2023/05/11 01:42:07;;;;;;;4.55;1.90;;;11.40;99.90;;;;;;5055219;28;20094;-44
2023/05/11 01:44:35;;;;;;;5.72;2.10;;;11.40;99.90;;;;;;5055225;28;20057;-44
2023/05/11 01:47:03;;;;;;;5.00;1.92;;;11.40;99.90;;;;;;5055082;28;20135;-44
2023/05/11 01:49:32;;;;;;;3.83;1.50;;;11.50;99.90;;;;;;5054809;28;20067;-44
2023/05/11 01:52:01;;;;;;;5.32;1.75;;;11.40;99.90;;;;;;5053689;28;20056;-45
2023/05/11 01:54:29;;;;;;;4.13;1.58;;;11.40;99.90;;;;;;5054783;28;20045;-44
2023/05/11 01:56:56;;;;;;;4.18;1.50;;;11.50;99.90;;;;;;5054983;28;20396;-44
2023/05/11 01:59:23;;;;;;;3.95;1.42;;;11.40;99.90;;;;;;5054822;28;20049;-45
2023/05/11 02:01:49;;;;;;;4.95;1.77;;;11.40;99.90;;;;;;5054554;28;20052;-45
2023/05/11 02:04:18;;;;;;;5.03;1.70;;;11.40;99.90;;;;;;5054404;28;20037;-44
2023/05/11 02:06:47;;;;;;;3.75;1.63;;;11.40;99.90;;;;;;5054660;28;20045;-44
2023/05/11 02:09:15;;;;;;;5.55;2.30;;;11.40;99.90;;;;;;5054595;28;20420;-44
2023/05/11 02:11:43;;;;;;;4.07;1.63;;;11.40;99.90;;;;;;5054498;28;20128;-45
2023/05/11 02:14:11;;;;;;;5.18;1.88;;;11.30;99.90;;;;;;5054545;28;20466;-45
2023/05/11 02:16:38;;;;;;;5.13;1.98;;;11.30;99.90;;;;;;5054793;28;20057;-45
2023/05/11 02:19:06;;;;;;;5.38;2.15;;;11.30;99.90;;;;;;5054433;28;20072;-47
2023/05/11 02:21:33;;;;;;;5.15;1.77;;;11.20;99.90;;;;;;5054644;28;20056;-46
2023/05/11 02:24:02;;;;;;;5.47;2.03;;;11.20;99.90;;;;;;5054290;28;20408;-48
2023/05/11 02:26:28;;;;;;;4.97;1.92;;;11.20;99.90;;;;;;5054236;28;20041;-46
2023/05/11 02:28:55;;;;;;;4.80;2.13;;;11.20;99.90;;;;;;5054249;28;20041;-49
2023/05/11 02:31:27;;;;;;;;;;;11.20;99.90;;;;;;5054583;28;20041;-47
2023/05/11 02:34:03;;;;;;;6.50;2.50;;;11.20;99.90;;;;;;5054147;28;19921;-45
2023/05/11 02:36:31;;;;;;;6.90;2.80;;;11.20;99.90;;;;;;5054172;28;20045;-48
2023/05/11 02:39:03;;;;;;;8.63;3.55;;;11.20;99.90;;;;;;5052881;28;20095;-48
2023/05/11 02:41:30;;;;;;;7.18;2.85;;;11.20;99.90;;;;;;5053894;28;20049;-45
2023/05/11 02:44:01;;;;;;;9.43;3.50;;;11.20;99.90;;;;;;5053518;28;20044;-46
2023/05/11 02:46:32;;;;;;;9.10;3.95;;;11.20;99.90;;;;;;5053975;28;20056;-45
2023/05/11 02:48:59;;;;;;;9.60;4.10;;;11.20;99.90;;;;;;5053921;28;20091;-47
2023/05/11 02:51:42;;;;;;;8.75;3.75;;;11.20;99.90;;;;;;5053989;28;20098;-45
2023/05/11 02:54:09;;;;;;;10.50;4.35;;;11.20;99.90;;;;;;5053719;28;20480;-45
2023/05/11 02:56:36;;;;;;;11.98;4.95;;;11.20;99.90;;;;;;5053667;28;20132;-44
2023/05/11 02:59:02;;;;;;;12.93;4.88;;;11.20;99.90;;;;;;5053781;28;20045;-44
2023/05/11 03:01:29;;;;;;;13.20;5.57;;;11.10;99.90;;;;;;5053746;28;20048;-45
2023/05/11 03:03:55;;;;;;;12.18;4.55;;;11.10;99.90;;;;;;5053673;28;20280;-45
2023/05/11 03:06:20;;;;;;;15.43;5.43;;;11.10;99.90;;;;;;5054332;28;20063;-47
2023/05/11 03:08:47;;;;;;;13.47;4.57;;;11.10;99.90;;;;;;5053525;28;20480;-44
2023/05/11 03:11:15;;;;;;;13.65;5.05;;;11.10;99.90;;;;;;5053697;28;20049;-44
2023/05/11 03:13:44;;;;;;;17.35;5.60;;;11.10;99.90;;;;;;5053513;28;20053;-44
2023/05/11 03:16:13;;;;;;;14.77;5.22;;;11.10;99.90;;;;;;5053719;28;20057;-44
2023/05/11 03:18:39;;;;;;;14.07;5.53;;;11.20;99.90;;;;;;5053572;28;20146;-44
2023/05/11 03:21:05;;;;;;;;;;;11.10;99.90;;;;;;5053946;28;20049;-44
2023/05/11 03:23:33;;;;;;;15.45;5.32;;;11.10;99.90;;;;;;5053265;28;19921;-44
2023/05/11 03:26:01;;;;;;;17.13;6.35;;;11.10;99.90;;;;;;5053881;28;20123;-44
2023/05/11 03:28:28;;;;;;;18.02;5.07;;;11.10;99.90;;;;;;5053381;28;20048;-44
2023/05/11 03:30:54;;;;;;;14.77;5.30;;;11.10;99.90;;;;;;5053174;28;20539;-44
2023/05/11 03:33:20;;;;;;;13.20;4.95;;;11.10;99.90;;;;;;5052352;28;20048;-44
2023/05/11 03:35:48;;;;;;;18.67;5.40;;;11.10;99.90;;;;;;5052554;28;20362;-44
2023/05/11 03:38:15;;;;;;;13.65;4.90;;;11.10;99.90;;;;;;5053320;28;20128;-44
2023/05/11 03:40:41;;;;;;;;;;;11.10;99.90;;;;;;5052749;28;20524;-44
2023/05/11 03:43:10;;;;;;;14.93;5.20;;;11.10;99.90;;;;;;5053365;28;20376;-44
2023/05/11 03:45:37;;;;;;;14.00;4.93;;;11.00;99.90;;;;;;5053650;28;20439;-44
2023/05/11 03:48:04;;;;;;;14.73;5.18;;;11.00;99.90;;;;;;5053240;28;20127;-44
2023/05/11 03:50:31;;;;;;;15.85;5.60;;;10.90;99.90;;;;;;5052995;28;20052;-44
2023/05/11 03:52:58;;;;;;;14.35;5.80;;;11.00;99.90;;;;;;5053180;28;20091;-44
2023/05/11 03:55:25;;;;;;;16.92;5.80;;;10.90;99.90;;;;;;5056242;28;20051;-44
2023/05/11 03:57:51;;;;;;;13.77;5.15;;;11.00;99.90;;;;;;5057287;28;20107;-44
2023/05/11 04:00:17;;;;;;;12.57;4.70;;;11.00;99.90;;;;;;5056983;28;20504;-45
2023/05/11 04:02:43;;;;;;;12.50;5.20;;;11.00;99.90;;;;;;5057101;28;20081;-45
2023/05/11 04:05:10;;;;;;;11.45;4.55;;;11.00;99.90;;;;;;5056765;28;20132;-46
2023/05/11 04:07:36;;;;;;;;;;;11.00;99.90;;;;;;5056818;28;20383;-44
2023/05/11 04:10:03;;;;;;;10.88;4.65;;;11.00;99.90;;;;;;5056924;28;19932;-44
2023/05/11 04:12:29;;;;;;;14.05;5.13;;;11.00;99.90;;;;;;5056658;28;20507;-44
2023/05/11 04:14:55;;;;;;;11.38;4.75;;;11.10;99.90;;;;;;5056684;28;20096;-44
2023/05/11 04:17:20;;;;;;;10.35;3.88;;;11.10;99.90;;;;;;5056730;28;20060;-44
2023/05/11 04:19:46;;;;;;;9.90;3.80;;;11.00;99.90;;;;;;5056544;28;20080;-44
2023/05/11 04:22:12;;;;;;;13.80;4.33;;;11.00;99.90;;;;;;5056663;28;20049;-44
2023/05/11 04:24:38;;;;;;;9.90;4.00;;;11.10;99.90;;;;;;5056599;28;20055;-44
2023/05/11 04:27:03;;;;;;;12.10;4.18;;;11.10;99.90;;;;;;5056602;28;20106;-44
2023/05/11 04:29:29;;;;;;;10.13;4.07;;;11.10;99.90;;;;;;5056549;28;20133;-45
2023/05/11 04:31:55;;;;;;;9.67;3.63;;;11.10;99.90;;;;;;5056566;28;20860;-44
2023/05/11 04:34:21;;;;;;;11.85;4.75;;;11.10;99.90;;;;;;5056140;28;20041;-45
2023/05/11 04:36:50;;;;;;;12.37;4.97;;;11.00;99.90;;;;;;5056431;28;20040;-44
2023/05/11 04:39:16;;;;;;;11.18;4.10;;;11.00;99.90;;;;;;5055597;28;20049;-44
2023/05/11 04:41:45;;;;;;;13.13;4.60;;;11.00;99.90;;;;;;5056303;28;20048;-45
2023/05/11 04:44:11;;;;;;;9.85;3.97;;;11.10;99.90;;;;;;5056171;28;20040;-44
2023/05/11 04:46:37;;;;;;;9.40;4.05;;;11.10;99.90;;;;;;5056161;28;20506;-44
2023/05/11 04:49:06;;;;;;;12.48;4.72;;;11.10;99.90;;;;;;5056047;28;20049;-45
2023/05/11 04:51:32;;;;;;;14.40;4.93;;;11.10;99.90;;;;;;5056098;28;20049;-44
2023/05/11 04:53:58;;;;;;;9.80;4.25;;;11.00;99.90;;;;;;5056022;28;20389;-45
2023/05/11 04:56:23;;;;;;;10.85;4.20;;;11.10;99.90;;;;;;5055940;28;20092;-44
2023/05/11 04:58:49;;;;;;;9.70;3.27;;;11.10;99.90;;;;;;5055940;28;20091;-45
2023/05/11 05:01:15;;;;;;;9.57;3.83;;;11.10;99.90;;;;;;5056005;28;20549;-44
2023/05/11 05:03:40;;;;;;;6.93;3.20;;;11.10;99.90;;;;;;5055625;28;20390;-45
2023/05/11 05:06:06;;;;;;;6.80;2.47;;;11.10;99.90;;;;;;5054927;28;20122;-45
2023/05/11 05:08:32;;;;;;;6.20;2.13;;;11.10;99.90;;;;;;5055848;28;20410;-45
2023/05/11 05:10:57;;;;;;;8.63;2.83;;;11.00;99.90;;;;;;5055508;28;20284;-46
2023/05/11 05:13:23;;;;;;;7.50;2.33;;;11.00;99.90;;;;;;5055529;28;20053;-45
2023/05/11 05:15:49;;;;;;;7.83;2.93;;;11.00;99.90;;;;;;5055502;28;20095;-45
2023/05/11 05:18:15;;;;;;;7.45;2.40;;;10.90;99.90;;;;;;5055447;28;20056;-48
2023/05/11 05:20:40;;;;;;;6.97;2.50;;;10.90;99.90;;;;;;5055780;28;20052;-45
2023/05/11 05:23:06;;;;;;;7.00;2.60;;;10.90;99.90;;;;;;5055924;28;20041;-48
2023/05/11 05:25:32;;;;;;;6.23;1.87;;;10.90;99.90;;;;;;5054663;28;20134;-48
2023/05/11 05:27:57;;;;;;;4.80;1.80;;;10.90;99.90;;;;;;5055351;28;20112;-47
2023/05/11 05:30:23;;;;;;;3.77;1.47;;;10.90;99.90;;;;;;5037895;28;20048;-45
2023/05/11 05:32:49;;;;;;;5.83;1.73;;;10.90;99.90;;;;;;5054981;28;20143;-46
2023/05/11 05:35:15;;;;;;;3.80;1.15;;;10.90;99.90;;;;;;5055322;28;20131;-46
2023/05/11 05:37:40;;;;;;;5.03;1.70;;;10.90;99.90;;;;;;5055602;28;20036;-48
2023/05/11 05:40:07;;;;;;;4.07;1.20;;;10.90;99.90;;;;;;5055076;28;20530;-46
2023/05/11 05:42:32;;;;;;;3.60;1.30;;;10.90;99.90;;;;;;5055121;28;20051;-45
2023/05/11 05:44:58;;;;;;;3.83;1.20;;;10.80;99.90;;;;;;5055088;28;20049;-45
2023/05/11 05:47:24;;;;;;;4.80;1.90;;;10.90;99.90;;;;;;5054834;28;20400;-46
2023/05/11 05:49:49;;;;;;;3.88;1.35;;;10.80;99.90;;;;;;5053780;28;20048;-45
2023/05/11 05:52:15;;;;;;;4.00;1.33;;;10.80;99.90;;;;;;5053873;28;20041;-45
2023/05/11 05:54:41;;;;;;;5.30;1.77;;;11.00;99.90;;;;;;5055050;28;20094;-44
2023/05/11 05:57:06;;;;;;;4.43;1.60;;;11.00;99.90;;;;;;5055011;28;20404;-45
2023/05/11 05:59:32;;;;;;;4.67;1.93;;;11.10;99.90;;;;;;5054797;28;20411;-44
2023/05/11 06:01:58;;;;;;;4.07;1.33;;;11.10;99.90;;;;;;5054688;28;20178;-44
2023/05/11 06:04:23;;;;;;;4.83;1.93;;;11.10;99.90;;;;;;5054710;28;20063;-44
2023/05/11 06:06:49;;;;;;;5.43;1.80;;;11.20;99.90;;;;;;5054854;28;20056;-44
2023/05/11 06:09:15;;;;;;;6.70;2.53;;;11.20;99.90;;;;;;5054890;28;20392;-44
2023/05/11 06:11:41;;;;;;;5.82;2.20;;;11.20;99.90;;;;;;5053522;28;20496;-44
2023/05/11 06:14:07;;;;;;;7.13;2.57;;;11.30;99.90;;;;;;5053373;28;20037;-45
2023/05/11 06:16:32;;;;;;;7.13;2.37;;;11.30;99.90;;;;;;5053722;28;20068;-45
2023/05/11 06:18:58;;;;;;;7.87;2.87;;;11.30;99.90;;;;;;5054036;28;20272;-44
2023/05/11 06:21:24;;;;;;;8.80;3.00;;;11.30;99.90;;;;;;5054531;28;20041;-44
2023/05/11 06:23:49;;;;;;;8.60;3.27;;;11.30;99.90;;;;;;5054224;28;20041;-45
2023/05/11 06:26:15;;;;;;;9.53;3.03;;;11.30;99.90;;;;;;5054179;28;20041;-44
2023/05/11 06:28:40;;;;;;;6.93;2.47;;;11.30;99.90;;;;;;5054044;28;20072;-44
2023/05/11 06:31:06;;;;;;;8.33;2.90;;;11.30;99.90;;;;;;5053877;28;20132;-44
2023/05/11 06:33:32;;;;;;;8.30;3.10;;;11.40;99.90;;;;;;5054196;28;20044;-45
2023/05/11 06:35:57;;;;;;;8.90;2.87;;;11.40;99.90;;;;;;5054159;28;20044;-44
2023/05/11 06:38:23;;;;;;;8.67;3.43;;;11.40;99.90;;;;;;5053047;28;20536;-45
2023/05/11 06:40:52;;;;;;;8.17;3.27;;;11.40;99.90;;;;;;5054082;28;20041;-44
2023/05/11 06:43:18;;;;;;;9.40;2.75;;;11.40;99.90;;;;;;5053981;28;20044;-44
2023/05/11 06:45:46;;;;;;;9.03;3.40;;;11.40;99.90;;;;;;5053747;28;20094;-45
2023/05/11 06:48:12;;;;;;;7.35;3.00;;;11.40;99.90;;;;;;5053894;28;20049;-44
2023/05/11 06:50:39;;;;;;;8.38;3.03;;;11.40;99.90;;;;;;5052695;28;20403;-44
2023/05/11 06:53:05;;;;;;;7.95;2.95;;;11.50;99.90;;;;;;5053784;28;20036;-45
2023/05/11 06:55:30;;;;;;;7.20;2.53;;;11.50;99.90;;;;;;5054081;28;20397;-44
2023/05/11 06:57:56;;;;;;;6.60;2.70;;;11.50;99.90;;;;;;5053679;28;20045;-44
2023/05/11 07:00:22;;;;;;;16.67;5.40;;;11.60;99.90;;;;;;5053477;28;20476;-44
2023/05/11 07:02:47;;;;;;;9.32;3.70;;;11.60;99.90;;;;;;5053777;28;20081;-44
2023/05/11 07:05:13;;;;;;;9.00;3.73;;;11.60;99.90;;;;;;5052525;28;20102;-44
2023/05/11 07:07:39;;;;;;;9.17;3.37;;;11.60;99.90;;;;;;5053753;28;20052;-44
2023/05/11 07:10:05;;;;;;;8.70;3.80;;;11.70;99.90;;;;;;5052566;28;20045;-44
2023/05/11 07:12:31;;;;;;;7.95;2.92;;;11.60;99.90;;;;;;5053543;28;20505;-44
2023/05/11 07:14:56;;;;;;;8.27;3.03;;;11.70;99.90;;;;;;5053291;28;20127;-44
2023/05/11 07:17:22;;;;;;;9.27;3.27;;;11.70;99.90;;;;;;5053261;28;20057;-45
2023/05/11 07:19:51;;;;;;;7.60;3.00;;;11.80;99.90;;;;;;5053795;28;20497;-46
2023/05/11 07:22:17;;;;;;;7.95;3.33;;;11.80;99.90;;;;;;5053580;28;20102;-44
2023/05/11 07:24:42;;;;;;;10.00;3.58;;;11.80;99.90;;;;;;5053471;28;20462;-44
2023/05/11 07:27:09;;;;;;;9.00;3.43;;;11.80;99.90;;;;;;5053310;28;20136;-44
2023/05/11 07:29:34;;;;;;;10.88;4.00;;;11.80;99.90;;;;;;5054806;28;20154;-44
2023/05/11 07:32:00;;;;;;;8.33;3.60;;;11.90;99.90;;;;;;5057582;28;20103;-44
2023/05/11 07:34:26;;;;;;;8.60;3.33;;;11.90;99.90;;;;;;5057868;28;20037;-44
2023/05/11 07:36:51;;;;;;;8.77;3.47;;;11.90;99.90;;;;;;5057515;28;20053;-44
2023/05/11 07:39:17;;;;;;;7.70;2.87;;;11.90;99.90;;;;;;5057458;28;20045;-44
2023/05/11 07:41:42;;;;;;;7.23;3.07;;;11.90;99.90;;;;;;5057349;28;20045;-44
2023/05/11 07:44:09;;;;;;;7.73;3.23;;;11.90;99.90;;;;;;5057393;28;20354;-45
2023/05/11 07:46:35;;;;;;;7.45;3.03;;;11.90;99.90;;;;;;5057155;28;20485;-44
2023/05/11 07:49:00;;;;;;;6.70;2.60;;;11.90;99.90;;;;;;5057291;28;20132;-44
2023/05/11 07:51:26;;;;;;;6.93;2.55;;;11.90;99.90;;;;;;5039803;28;20057;-44
2023/05/11 07:53:52;;;;;;;7.60;2.73;;;11.80;99.90;;;;;;5057138;28;20084;-44
2023/05/11 07:56:18;;;;;;;6.60;2.90;;;11.80;99.90;;;;;;5056376;28;20051;-44
2023/05/11 07:58:44;;;;;;;6.97;2.60;;;11.80;99.90;;;;;;5057071;28;20400;-44
2023/05/11 08:01:09;;;;;;;8.33;3.10;;;11.90;99.90;;;;;;5057130;28;20041;-44
2023/05/11 08:03:35;;;;;;;6.77;2.50;;;11.90;99.90;;;;;;5057238;28;20045;-45
2023/05/11 08:06:02;;;;;;;6.13;2.47;;;12.00;99.90;;;;;;5057082;28;20048;-44
2023/05/11 08:08:29;;;;;;;8.05;2.58;;;12.00;99.90;;;;;;5056968;28;20049;-44
2023/05/11 08:10:54;;;;;;;8.02;2.83;;;12.00;99.90;;;;;;5056889;28;20484;-44
2023/05/11 08:13:20;;;;;;;6.43;2.35;;;12.00;99.90;;;;;;5056723;28;20094;-44
2023/05/11 08:15:46;;;;;;;5.47;2.37;;;12.00;99.90;;;;;;5056776;28;20049;-45
2023/05/11 08:18:11;;;;;;;6.90;2.67;;;12.00;99.90;;;;;;5057366;28;20055;-45
2023/05/11 08:20:38;;;;;;;6.47;2.50;;;12.10;99.90;;;;;;5056789;28;20048;-45
2023/05/11 08:23:04;;;;;;;;;;;12.10;99.90;;;;;;5057257;28;20048;-45
2023/05/11 08:25:29;;;;;;;6.80;2.65;;;12.10;99.90;;;;;;5072294;28;19920;-48
2023/05/11 08:27:55;;;;;;;9.30;3.20;;;12.10;99.90;;;;;;5055227;28;20107;-48
2023/05/11 08:30:21;;;;;;;9.10;3.47;;;12.10;99.90;;;;;;5055654;28;20451;-45
2023/05/11 08:32:46;;;;;;;6.87;2.60;;;12.10;99.90;;;;;;5056428;28;20552;-46
2023/05/11 08:35:12;;;;;;;7.53;3.33;;;12.20;99.90;;;;;;5056468;28;20091;-45
2023/05/11 08:37:38;;;;;;;6.40;3.17;;;12.20;99.90;;;;;;5056248;28;20047;-45
2023/05/11 08:40:04;;;;;;;6.90;3.10;;;12.20;99.90;;;;;;5054670;28;20134;-45
2023/05/11 08:42:34;;;;;;;7.50;3.20;;;12.20;99.90;;;;;;5056258;28;20459;-45
2023/05/11 08:45:01;;;;;;;8.70;2.97;;;12.20;99.90;;;;;;5056019;28;20045;-45
2023/05/11 08:47:27;;;;;;;8.88;2.83;;;12.30;99.90;;;;;;5056135;28;20045;-45
2023/05/11 08:49:53;;;;;;;;;;;12.30;99.90;;;;;;5056531;28;20053;-47
2023/05/11 08:52:19;;;;;;;8.55;3.60;;;12.30;99.90;;;;;;5055399;28;20016;-47
2023/05/11 08:54:46;;;;;;;7.35;3.17;;;12.30;99.90;;;;;;5056081;28;20512;-44
2023/05/11 08:57:13;;;;;;;8.07;3.50;;;12.40;99.90;;;;;;5055761;28;20048;-44
2023/05/11 08:59:43;;;;;;;7.88;3.08;;;12.40;99.90;;;;;;5055957;28;20124;-44
2023/05/11 09:02:14;;;;;;;7.53;3.20;;;12.50;99.90;;;;;;5056152;28;20510;-44
2023/05/11 09:04:41;;;;;;;7.40;3.00;;;12.50;99.90;;;;;;5055960;28;20051;-44
2023/05/11 09:07:06;;;;;;;;;;;12.50;99.90;;;;;;5056330;28;20045;-44
2023/05/11 09:09:32;;;;;;;7.93;3.50;;;12.60;99.90;;;;;;5055601;28;19932;-44
2023/05/11 09:11:58;;;;;;;9.05;3.75;;;12.60;99.90;;;;;;5055458;28;20084;-44
2023/05/11 09:14:24;;;;;;;8.32;3.53;;;12.70;99.90;;;;;;5055602;28;20041;-44
2023/05/11 09:16:49;;;;;;;8.10;3.60;;;12.70;99.90;;;;;;5055625;28;20068;-44
2023/05/11 09:19:15;;;;;;;8.87;3.50;;;12.70;99.90;;;;;;5055365;28;20048;-45
2023/05/11 09:21:41;;;;;;;8.45;4.07;;;12.70;99.90;;;;;;5055592;28;20084;-44
2023/05/11 09:24:11;;;;;;;7.80;3.30;;;12.80;99.90;;;;;;5055600;28;20060;-44
2023/05/11 09:26:37;;;;;;;9.25;4.10;;;12.80;99.90;;;;;;5055564;28;20053;-44
2023/05/11 09:29:03;;;;;;;8.68;3.17;;;12.80;99.90;;;;;;5055455;28;20094;-44
2023/05/11 09:31:42;;;;;;;7.57;3.60;;;12.90;99.90;;;;;;5055588;28;20045;-43
2023/05/11 09:34:19;;;;;;;7.80;3.25;;;12.90;99.90;;;;;;5055181;28;20338;-44
2023/05/11 09:36:47;;;;;;;8.32;3.72;;;13.00;99.90;;;;;;5055297;28;20048;-44
2023/05/11 09:39:14;;;;;;;9.10;3.40;;;13.00;99.90;;;;;;5055249;28;20048;-44
2023/05/11 09:41:40;;;;;;;7.80;2.95;;;13.00;99.90;;;;;;5054225;28;20488;-44
2023/05/11 09:44:10;;;;;;;7.50;3.17;;;13.10;99.90;;;;;;5055139;28;20076;-44
2023/05/11 09:46:37;;;;;;;6.57;2.85;;;13.20;99.90;;;;;;5055276;28;20071;-44
2023/05/11 09:49:03;;;;;;;6.30;2.83;;;13.20;99.90;;;;;;5055009;28;20131;-44
2023/05/11 09:51:31;;;;;;;7.47;3.03;;;13.20;99.90;;;;;;5053250;28;20084;-44
2023/05/11 09:53:58;;;;;;;7.80;3.17;;;13.30;99.90;;;;;;5054719;28;20439;-43
2023/05/11 09:56:48;;;;;;;7.47;3.03;;;13.40;99.90;;;;;;5054915;28;20123;-43
2023/05/11 09:59:15;;;;;;;7.20;3.10;;;13.40;99.90;;;;;;5055097;28;20044;-44
2023/05/11 10:01:40;;;;;;;7.00;2.70;;;13.40;99.90;;;;;;5054769;28;20049;-44
2023/05/11 10:04:07;;;;;;;6.00;2.93;;;13.50;99.90;;;;;;5054691;28;20083;-44
2023/05/11 10:06:46;;;;;;;;;;;13.50;99.90;;;;;;5055104;28;20284;-44
2023/05/11 10:09:13;;;;;;;7.97;2.80;;;13.50;99.90;;;;;;5054691;28;19946;-44
2023/05/11 10:11:43;;;;;;;6.15;2.88;;;13.60;99.90;;;;;;5054581;28;20049;-44
2023/05/11 10:14:13;;;;;;;5.97;2.28;;;13.60;99.90;;;;;;5054412;28;20563;-44
2023/05/11 10:16:41;;;;;;;5.95;2.38;;;13.60;99.90;;;;;;5054266;28;20048;-45
2023/05/11 10:19:08;;;;;;;6.00;2.45;;;13.60;99.90;;;;;;5054459;28;20051;-44
2023/05/11 10:21:34;;;;;;;6.53;3.10;;;13.70;99.90;;;;;;5054414;28;20048;-44
2023/05/11 10:24:02;;;;;;;6.15;2.67;;;13.80;99.90;;;;;;5054364;28;20146;-44
2023/05/11 10:26:31;;;;;;;6.90;2.85;;;13.80;99.90;;;;;;5054426;28;20055;-44
2023/05/11 10:29:00;;;;;;;6.15;2.78;;;13.90;99.90;;;;;;5054143;28;20407;-43
2023/05/11 10:31:27;;;;;;;6.00;2.35;;;14.00;99.90;;;;;;5054290;28;20138;-43
2023/05/11 10:33:53;;;;;;;6.25;2.42;;;14.00;99.90;;;;;;5053937;28;20488;-44
2023/05/11 10:36:22;;;;;;;7.03;2.72;;;14.00;99.90;;;;;;5054254;28;20084;-44
2023/05/11 10:38:48;;;;;;;6.20;2.83;;;14.10;99.90;;;;;;5053989;28;20447;-44
2023/05/11 10:42:00;;;;;;;5.63;2.27;;;14.10;99.90;;;;;;5053961;28;20044;-44
2023/05/11 10:44:50;;;;;;;6.82;2.55;;;14.10;99.90;;;;;;5047095;28;20451;-44
2023/05/11 10:47:42;;;;;;;6.32;2.35;;;14.20;99.90;;;;;;5054069;28;20510;-44
2023/05/11 10:50:45;;;;;;;5.63;2.40;;;14.30;99.90;;;;;;5054450;28;20045;-44
2023/05/11 10:53:37;;;;;;;5.53;2.25;;;14.40;99.90;;;;;;5053901;28;20084;-44
2023/05/11 10:56:34;;;;;;;5.18;2.17;;;14.50;99.90;;;;;;5054035;28;20049;-44
2023/05/11 10:59:11;;;;;;;4.15;1.75;;;14.60;99.90;;;;;;5043501;28;20099;-43
2023/05/11 11:01:38;;;;;;;5.55;2.13;;;14.60;99.90;;;;;;5053748;28;20579;-44
2023/05/11 11:04:06;;;;;;;4.25;1.70;;;14.60;99.90;;;;;;5053507;28;20045;-44
2023/05/11 11:06:40;;;;;;;3.35;1.30;;;14.60;99.90;;;;;;5053461;28;20044;-44
2023/05/11 11:09:11;;;;;;;3.63;1.70;;;14.70;99.90;;;;;;5053747;28;20049;-44
2023/05/11 11:11:45;;;;;;;3.55;1.50;;;14.70;99.90;;;;;;5053698;28;20044;-44
2023/05/11 11:14:13;;;;;;;3.33;1.40;;;14.70;99.90;;;;;;5053528;28;20052;-47
2023/05/11 11:16:40;;;;;;;4.00;1.20;;;14.80;99.90;;;;;;5052250;28;20397;-44
2023/05/11 11:19:30;;;;;;;3.28;1.40;;;14.90;99.90;;;;;;5053314;28;20049;-45
2023/05/11 11:22:00;;;;;;;3.92;1.27;;;15.00;99.90;;;;;;5053689;28;20055;-48
2023/05/11 11:24:38;;;;;;;4.57;1.38;;;15.10;99.90;;;;;;5052540;28;20055;-49
2023/05/11 11:27:08;;;;;;;2.88;1.17;;;15.20;99.90;;;;;;5053421;28;20048;-44
2023/05/11 11:29:35;;;;;;;3.85;2.33;;;15.30;99.90;;;;;;5053354;28;20492;-44
2023/05/11 11:32:24;;;;;;;3.35;1.30;;;15.20;99.90;;;;;;5053502;28;20381;-44
2023/05/11 11:34:50;;;;;;;2.05;1.02;;;15.20;99.90;;;;;;5050458;28;20069;-45
2023/05/11 11:37:17;;;;;;;2.33;1.13;;;15.10;99.90;;;;;;5053299;28;20496;-44
2023/05/11 11:39:43;;;;;;;3.13;1.38;;;15.00;99.90;;;;;;5053299;28;20048;-44
2023/05/11 11:42:17;;;;;;;3.00;1.30;;;15.00;99.90;;;;;;5053081;28;20045;-45
2023/05/11 11:44:44;;;;;;;2.13;0.98;;;14.90;99.90;;;;;;5053479;28;20128;-45
2023/05/11 11:47:14;;;;;;;3.00;1.00;;;14.90;99.90;;;;;;5053504;28;20527;-44
2023/05/11 11:49:42;;;;;;;2.33;1.10;;;14.90;99.90;;;;;;5052247;28;20113;-45
2023/05/11 11:52:30;;;;;;;3.17;1.13;;;15.00;99.90;;;;;;5053040;28;20560;-44
2023/05/11 11:54:58;;;;;;;2.72;1.20;;;14.90;99.90;;;;;;5053438;28;20072;-45
2023/05/11 11:57:32;;;;;;;2.88;1.25;;;14.90;99.90;;;;;;5053191;28;20045;-44
2023/05/11 11:59:59;;;;;;;2.92;1.13;;;15.00;99.90;;;;;;5053097;28;20052;-45
2023/05/11 12:02:26;;;;;;;2.55;1.05;;;15.00;99.90;;;;;;5052939;28;20049;-44
2023/05/11 12:05:18;;;;;;;3.67;1.20;;;15.10;99.90;;;;;;5053085;28;20048;-44
2023/05/11 12:07:51;;;;;;;2.97;1.27;;;15.20;99.90;;;;;;5052940;28;20373;-44
2023/05/11 12:10:19;;;;;;;2.85;1.15;;;15.30;99.90;;;;;;5052991;28;20037;-44
2023/05/11 12:12:53;;;;;;;3.15;1.50;;;15.40;99.90;;;;;;5052948;28;20381;-44
2023/05/11 12:15:33;;;;;;;4.15;2.05;;;15.50;99.90;;;;;;5054026;28;20119;-46
2023/05/11 12:18:01;;;;;;;4.50;1.80;;;15.60;99.90;;;;;;5057301;28;20068;-45
2023/05/11 12:20:27;;;;;;;3.00;1.20;;;15.80;99.90;;;;;;5056813;28;20045;-45
2023/05/11 12:22:53;;;;;;;2.53;1.10;;;16.00;99.90;;;;;;5056621;28;20045;-45
2023/05/11 12:25:20;;;;;;;5.68;2.20;;;16.20;99.90;;;;;;5056696;28;20106;-45
2023/05/11 12:28:00;;;;;;;4.78;1.88;;;16.20;99.90;;;;;;5056539;28;20045;-45
2023/05/11 12:30:31;;;;;;;3.35;1.48;;;16.30;99.90;;;;;;5056785;28;20052;-44
2023/05/11 12:32:58;;;;;;;3.92;1.83;;;16.20;99.90;;;;;;5056504;28;20045;-43
2023/05/11 12:35:27;;;;;;;4.55;1.85;;;16.20;99.90;;;;;;5056622;28;20071;-44
2023/05/11 12:37:53;;;;;;;4.45;1.58;;;16.10;99.90;;;;;;5056429;28;20048;-44
2023/05/11 12:40:19;;;;;;;3.88;1.77;;;16.20;99.90;;;;;;5056180;28;20090;-44
2023/05/11 12:42:59;;;;;;;4.78;2.53;;;16.30;99.90;;;;;;5056385;28;20476;-45
2023/05/11 12:45:26;;;;;;;3.97;1.70;;;16.30;99.90;;;;;;5056194;28;20503;-44
2023/05/11 12:47:53;;;;;;;5.43;2.10;;;16.40;99.90;;;;;;5056083;28;20045;-44
2023/05/11 12:50:20;;;;;;;4.40;1.73;;;16.50;99.90;;;;;;5056035;28;20493;-44
2023/05/11 12:52:47;;;;;;;4.88;2.28;;;16.50;99.90;;;;;;5055855;28;20052;-44
2023/05/11 12:55:15;;;;;;;4.95;2.28;;;16.50;99.90;;;;;;5055729;28;20515;-44